Forside
METAR-TAF:

METAR-TAF

Lufthavne :

Millington, Tennessee, USA

Breddekreds: 35-21-24N, længdekreds: 089-52-13W, højde: 98 m

Aktuelle vejr

Denne rapport blev lavet for 21 minutter siden, kl. 11:50 UTC
Vind 11 kt fra sydøst med vindstød på up til 18 kt
Temperatur 4°C
Fugtighed 56%
Tryk 1023 hPa
Sigt: 16.1 km
Overskyet i en højde af 4900 ft

METAR: KNQA 221150Z 14011G18KT 10SM OVC049 04/M04 A3021

Tid: 06:11 (12:11 UTC)


TAF: fraværende

Vejrobservationer og prognoser fra mere end 4000 lufthavne (METAR og TAF).

De gule og røde prikker repræsenterer de meteorologiske stationer.

Flyt musen over at se navnet på stationen.

Så klik over at se vejr observationer og prognoser.

At skifte det kort: Klik på de grønne knapper med et sort kors for at zoome ind; på den grønne knap med en bindestreg for at zoome ud; eller på de grønne pile for tilstødende kort.


METAR-TAF: